sensor_id;sensor_type;location;lat;lon;timestamp;P1;durP1;ratioP1;P2;durP2;ratioP2
59271;SDS011;45043;51.068;7.026;2023-01-15T00:01:17;2.53;;;1.13;;
59271;SDS011;45043;51.068;7.026;2023-01-15T00:04:24;1.90;;;0.77;;
59271;SDS011;45043;51.068;7.026;2023-01-15T00:07:24;1.83;;;1.23;;
59271;SDS011;45043;51.068;7.026;2023-01-15T00:10:24;1.00;;;1.00;;
59271;SDS011;45043;51.068;7.026;2023-01-15T00:13:25;1.60;;;1.50;;
59271;SDS011;45043;51.068;7.026;2023-01-15T00:16:27;2.50;;;1.40;;
59271;SDS011;45043;51.068;7.026;2023-01-15T00:19:29;2.20;;;1.63;;
59271;SDS011;45043;51.068;7.026;2023-01-15T00:22:29;3.87;;;1.23;;
59271;SDS011;45043;51.068;7.026;2023-01-15T00:25:30;1.23;;;1.13;;
59271;SDS011;45043;51.068;7.026;2023-01-15T00:28:49;2.37;;;1.57;;
59271;SDS011;45043;51.068;7.026;2023-01-15T00:34:53;2.13;;;1.07;;
59271;SDS011;45043;51.068;7.026;2023-01-15T00:37:53;2.40;;;1.27;;
59271;SDS011;45043;51.068;7.026;2023-01-15T00:40:54;2.13;;;1.43;;
59271;SDS011;45043;51.068;7.026;2023-01-15T00:43:54;3.13;;;1.43;;
59271;SDS011;45043;51.068;7.026;2023-01-15T00:46:56;1.67;;;1.23;;
59271;SDS011;45043;51.068;7.026;2023-01-15T00:49:56;2.17;;;1.47;;
59271;SDS011;45043;51.068;7.026;2023-01-15T00:52:56;2.17;;;1.40;;
59271;SDS011;45043;51.068;7.026;2023-01-15T00:55:57;2.10;;;1.40;;
59271;SDS011;45043;51.068;7.026;2023-01-15T00:58:59;1.87;;;1.57;;
59271;SDS011;45043;51.068;7.026;2023-01-15T01:02:00;2.40;;;1.40;;
59271;SDS011;45043;51.068;7.026;2023-01-15T01:05:01;2.50;;;1.57;;
59271;SDS011;45043;51.068;7.026;2023-01-15T01:08:03;2.50;;;1.57;;
59271;SDS011;45043;51.068;7.026;2023-01-15T01:11:04;3.53;;;1.60;;
59271;SDS011;45043;51.068;7.026;2023-01-15T01:14:08;2.93;;;1.63;;
59271;SDS011;45043;51.068;7.026;2023-01-15T01:17:10;3.83;;;1.57;;
59271;SDS011;45043;51.068;7.026;2023-01-15T01:20:12;2.83;;;1.40;;
59271;SDS011;45043;51.068;7.026;2023-01-15T01:23:17;4.00;;;1.97;;
59271;SDS011;45043;51.068;7.026;2023-01-15T01:26:18;2.97;;;1.90;;
59271;SDS011;45043;51.068;7.026;2023-01-15T01:29:20;3.40;;;2.10;;
59271;SDS011;45043;51.068;7.026;2023-01-15T01:32:21;1.90;;;1.43;;
59271;SDS011;45043;51.068;7.026;2023-01-15T01:35:22;3.73;;;1.67;;
59271;SDS011;45043;51.068;7.026;2023-01-15T01:38:22;2.37;;;1.63;;
59271;SDS011;45043;51.068;7.026;2023-01-15T01:41:24;2.60;;;1.67;;
59271;SDS011;45043;51.068;7.026;2023-01-15T01:47:31;4.10;;;2.30;;
59271;SDS011;45043;51.068;7.026;2023-01-15T01:50:33;3.07;;;1.93;;
59271;SDS011;45043;51.068;7.026;2023-01-15T01:53:36;3.70;;;1.50;;
59271;SDS011;45043;51.068;7.026;2023-01-15T01:56:37;1.83;;;1.40;;
59271;SDS011;45043;51.068;7.026;2023-01-15T01:59:38;3.33;;;2.03;;
59271;SDS011;45043;51.068;7.026;2023-01-15T02:02:41;2.40;;;1.70;;
59271;SDS011;45043;51.068;7.026;2023-01-15T02:05:48;2.43;;;1.37;;
59271;SDS011;45043;51.068;7.026;2023-01-15T02:08:51;4.17;;;1.60;;
59271;SDS011;45043;51.068;7.026;2023-01-15T02:11:52;2.03;;;1.60;;
59271;SDS011;45043;51.068;7.026;2023-01-15T02:15:09;2.00;;;1.50;;
59271;SDS011;45043;51.068;7.026;2023-01-15T02:28:03;1.63;;;1.40;;
59271;SDS011;45043;51.068;7.026;2023-01-15T02:31:29;2.80;;;1.40;;
59271;SDS011;45043;51.068;7.026;2023-01-15T02:34:36;3.13;;;1.50;;
59271;SDS011;45043;51.068;7.026;2023-01-15T02:37:45;2.33;;;1.27;;
59271;SDS011;45043;51.068;7.026;2023-01-15T02:40:55;1.97;;;1.47;;
59271;SDS011;45043;51.068;7.026;2023-01-15T02:44:01;1.57;;;1.47;;
59271;SDS011;45043;51.068;7.026;2023-01-15T02:47:05;2.87;;;1.60;;
59271;SDS011;45043;51.068;7.026;2023-01-15T02:50:10;2.20;;;1.20;;
59271;SDS011;45043;51.068;7.026;2023-01-15T02:53:16;1.40;;;1.30;;
59271;SDS011;45043;51.068;7.026;2023-01-15T02:56:24;1.87;;;1.20;;
59271;SDS011;45043;51.068;7.026;2023-01-15T02:59:32;1.67;;;1.40;;
59271;SDS011;45043;51.068;7.026;2023-01-15T03:02:40;2.43;;;1.40;;
59271;SDS011;45043;51.068;7.026;2023-01-15T03:05:51;2.17;;;1.33;;
59271;SDS011;45043;51.068;7.026;2023-01-15T03:09:08;1.93;;;1.37;;
59271;SDS011;45043;51.068;7.026;2023-01-15T03:15:23;2.27;;;1.40;;
59271;SDS011;45043;51.068;7.026;2023-01-15T03:19:34;1.87;;;1.47;;
59271;SDS011;45043;51.068;7.026;2023-01-15T03:22:26;3.43;;;1.67;;
59271;SDS011;45043;51.068;7.026;2023-01-15T03:25:32;2.83;;;1.27;;
59271;SDS011;45043;51.068;7.026;2023-01-15T03:28:38;1.37;;;1.20;;
59271;SDS011;45043;51.068;7.026;2023-01-15T03:31:40;1.13;;;1.03;;
59271;SDS011;45043;51.068;7.026;2023-01-15T03:34:42;2.33;;;1.30;;
59271;SDS011;45043;51.068;7.026;2023-01-15T03:37:50;2.53;;;1.50;;
59271;SDS011;45043;51.068;7.026;2023-01-15T03:48:00;3.57;;;2.07;;
59271;SDS011;45043;51.068;7.026;2023-01-15T03:51:12;3.77;;;1.90;;
59271;SDS011;45043;51.068;7.026;2023-01-15T03:54:24;4.57;;;1.97;;
59271;SDS011;45043;51.068;7.026;2023-01-15T04:00:42;2.87;;;1.67;;
59271;SDS011;45043;51.068;7.026;2023-01-15T04:03:49;3.57;;;2.00;;
59271;SDS011;45043;51.068;7.026;2023-01-15T04:06:56;3.43;;;1.77;;
59271;SDS011;45043;51.068;7.026;2023-01-15T04:09:57;1.77;;;1.33;;
59271;SDS011;45043;51.068;7.026;2023-01-15T04:12:58;3.80;;;1.47;;
59271;SDS011;45043;51.068;7.026;2023-01-15T04:15:59;3.27;;;1.53;;
59271;SDS011;45043;51.068;7.026;2023-01-15T04:19:00;1.60;;;1.20;;
59271;SDS011;45043;51.068;7.026;2023-01-15T04:22:02;3.20;;;1.70;;
59271;SDS011;45043;51.068;7.026;2023-01-15T04:25:03;3.90;;;1.90;;
59271;SDS011;45043;51.068;7.026;2023-01-15T04:28:06;3.57;;;1.60;;
59271;SDS011;45043;51.068;7.026;2023-01-15T04:31:08;3.93;;;1.73;;
59271;SDS011;45043;51.068;7.026;2023-01-15T04:34:09;3.93;;;2.03;;
59271;SDS011;45043;51.068;7.026;2023-01-15T04:37:09;3.30;;;1.80;;
59271;SDS011;45043;51.068;7.026;2023-01-15T04:40:10;2.47;;;1.60;;
59271;SDS011;45043;51.068;7.026;2023-01-15T04:43:34;3.27;;;1.50;;
59271;SDS011;45043;51.068;7.026;2023-01-15T04:46:53;3.70;;;1.97;;
59271;SDS011;45043;51.068;7.026;2023-01-15T04:49:54;4.27;;;1.70;;
59271;SDS011;45043;51.068;7.026;2023-01-15T04:52:54;5.50;;;1.97;;
59271;SDS011;45043;51.068;7.026;2023-01-15T04:55:59;5.30;;;1.57;;
59271;SDS011;45043;51.068;7.026;2023-01-15T04:59:01;3.10;;;1.50;;
59271;SDS011;45043;51.068;7.026;2023-01-15T05:02:01;3.07;;;1.37;;
59271;SDS011;45043;51.068;7.026;2023-01-15T05:05:02;2.93;;;1.97;;
59271;SDS011;45043;51.068;7.026;2023-01-15T05:08:03;3.97;;;2.07;;
59271;SDS011;45043;51.068;7.026;2023-01-15T05:11:04;5.40;;;1.90;;
59271;SDS011;45043;51.068;7.026;2023-01-15T05:14:06;4.87;;;2.10;;
59271;SDS011;45043;51.068;7.026;2023-01-15T05:17:07;5.27;;;2.00;;
59271;SDS011;45043;51.068;7.026;2023-01-15T05:20:07;3.30;;;1.90;;
59271;SDS011;45043;51.068;7.026;2023-01-15T05:23:09;7.33;;;2.13;;
59271;SDS011;45043;51.068;7.026;2023-01-15T05:26:10;6.13;;;1.73;;
59271;SDS011;45043;51.068;7.026;2023-01-15T05:29:12;3.90;;;2.00;;
59271;SDS011;45043;51.068;7.026;2023-01-15T05:32:13;4.90;;;1.60;;
59271;SDS011;45043;51.068;7.026;2023-01-15T05:35:13;4.60;;;1.60;;
59271;SDS011;45043;51.068;7.026;2023-01-15T05:38:14;4.40;;;2.10;;
59271;SDS011;45043;51.068;7.026;2023-01-15T05:41:15;4.17;;;1.73;;
59271;SDS011;45043;51.068;7.026;2023-01-15T05:44:36;4.77;;;2.00;;
59271;SDS011;45043;51.068;7.026;2023-01-15T05:47:37;5.87;;;2.27;;
59271;SDS011;45043;51.068;7.026;2023-01-15T05:50:37;4.20;;;1.50;;
59271;SDS011;45043;51.068;7.026;2023-01-15T05:53:38;7.50;;;2.10;;
59271;SDS011;45043;51.068;7.026;2023-01-15T05:56:38;5.30;;;1.90;;
59271;SDS011;45043;51.068;7.026;2023-01-15T05:59:39;4.03;;;1.87;;
59271;SDS011;45043;51.068;7.026;2023-01-15T06:02:40;6.80;;;1.83;;
59271;SDS011;45043;51.068;7.026;2023-01-15T06:05:41;5.17;;;2.40;;
59271;SDS011;45043;51.068;7.026;2023-01-15T06:08:41;7.20;;;1.80;;
59271;SDS011;45043;51.068;7.026;2023-01-15T06:11:42;6.23;;;1.50;;
59271;SDS011;45043;51.068;7.026;2023-01-15T06:14:44;3.63;;;1.97;;
59271;SDS011;45043;51.068;7.026;2023-01-15T06:17:47;7.87;;;1.67;;
59271;SDS011;45043;51.068;7.026;2023-01-15T06:20:50;3.07;;;1.53;;
59271;SDS011;45043;51.068;7.026;2023-01-15T06:23:51;4.83;;;1.70;;
59271;SDS011;45043;51.068;7.026;2023-01-15T06:26:53;4.07;;;1.90;;
59271;SDS011;45043;51.068;7.026;2023-01-15T06:29:53;5.23;;;1.80;;
59271;SDS011;45043;51.068;7.026;2023-01-15T06:32:56;6.73;;;2.17;;
59271;SDS011;45043;51.068;7.026;2023-01-15T06:35:57;7.50;;;2.30;;
59271;SDS011;45043;51.068;7.026;2023-01-15T06:38:58;3.63;;;1.70;;
59271;SDS011;45043;51.068;7.026;2023-01-15T06:41:58;6.73;;;1.70;;
59271;SDS011;45043;51.068;7.026;2023-01-15T06:45:17;5.67;;;1.87;;
59271;SDS011;45043;51.068;7.026;2023-01-15T06:48:36;3.87;;;1.23;;
59271;SDS011;45043;51.068;7.026;2023-01-15T06:51:37;4.47;;;1.63;;
59271;SDS011;45043;51.068;7.026;2023-01-15T06:54:38;7.33;;;1.97;;
59271;SDS011;45043;51.068;7.026;2023-01-15T06:57:38;5.37;;;1.70;;
59271;SDS011;45043;51.068;7.026;2023-01-15T07:00:40;5.13;;;1.77;;
59271;SDS011;45043;51.068;7.026;2023-01-15T07:03:45;5.43;;;1.60;;
59271;SDS011;45043;51.068;7.026;2023-01-15T07:06:45;3.57;;;1.27;;
59271;SDS011;45043;51.068;7.026;2023-01-15T07:09:46;4.07;;;1.50;;
59271;SDS011;45043;51.068;7.026;2023-01-15T07:12:48;4.77;;;1.30;;
59271;SDS011;45043;51.068;7.026;2023-01-15T07:15:49;4.83;;;1.97;;
59271;SDS011;45043;51.068;7.026;2023-01-15T07:18:49;2.90;;;1.40;;
59271;SDS011;45043;51.068;7.026;2023-01-15T07:21:50;10.07;;;2.03;;
59271;SDS011;45043;51.068;7.026;2023-01-15T07:24:51;2.47;;;1.17;;
59271;SDS011;45043;51.068;7.026;2023-01-15T07:27:52;2.13;;;1.00;;
59271;SDS011;45043;51.068;7.026;2023-01-15T07:30:56;3.57;;;1.30;;
59271;SDS011;45043;51.068;7.026;2023-01-15T07:33:57;4.17;;;1.80;;
59271;SDS011;45043;51.068;7.026;2023-01-15T07:36:58;3.27;;;1.50;;
59271;SDS011;45043;51.068;7.026;2023-01-15T07:39:59;8.53;;;1.83;;
59271;SDS011;45043;51.068;7.026;2023-01-15T07:43:00;4.43;;;1.40;;
59271;SDS011;45043;51.068;7.026;2023-01-15T07:46:19;5.00;;;1.97;;
59271;SDS011;45043;51.068;7.026;2023-01-15T07:49:39;5.90;;;1.63;;
59271;SDS011;45043;51.068;7.026;2023-01-15T07:52:44;5.10;;;1.80;;
59271;SDS011;45043;51.068;7.026;2023-01-15T07:55:45;4.57;;;1.80;;
59271;SDS011;45043;51.068;7.026;2023-01-15T07:58:46;4.27;;;2.20;;
59271;SDS011;45043;51.068;7.026;2023-01-15T08:01:49;4.93;;;2.03;;
59271;SDS011;45043;51.068;7.026;2023-01-15T08:04:49;2.40;;;1.43;;
59271;SDS011;45043;51.068;7.026;2023-01-15T08:07:50;2.03;;;1.50;;
59271;SDS011;45043;51.068;7.026;2023-01-15T08:10:50;3.10;;;1.50;;
59271;SDS011;45043;51.068;7.026;2023-01-15T08:14:09;3.83;;;1.40;;
59271;SDS011;45043;51.068;7.026;2023-01-15T08:17:29;4.53;;;1.60;;
59271;SDS011;45043;51.068;7.026;2023-01-15T08:20:30;3.60;;;1.60;;
59271;SDS011;45043;51.068;7.026;2023-01-15T08:23:33;2.87;;;1.27;;
59271;SDS011;45043;51.068;7.026;2023-01-15T08:26:34;3.73;;;1.20;;
59271;SDS011;45043;51.068;7.026;2023-01-15T08:29:35;3.30;;;1.20;;
59271;SDS011;45043;51.068;7.026;2023-01-15T08:32:35;2.40;;;1.47;;
59271;SDS011;45043;51.068;7.026;2023-01-15T08:35:36;4.30;;;1.60;;
59271;SDS011;45043;51.068;7.026;2023-01-15T08:38:36;2.30;;;1.63;;
59271;SDS011;45043;51.068;7.026;2023-01-15T08:41:37;1.47;;;1.37;;
59271;SDS011;45043;51.068;7.026;2023-01-15T08:44:37;1.63;;;1.50;;
59271;SDS011;45043;51.068;7.026;2023-01-15T08:47:38;2.23;;;1.13;;
59271;SDS011;45043;51.068;7.026;2023-01-15T08:50:39;1.00;;;0.87;;
59271;SDS011;45043;51.068;7.026;2023-01-15T08:53:39;0.87;;;0.87;;
59271;SDS011;45043;51.068;7.026;2023-01-15T08:56:40;1.73;;;1.20;;
59271;SDS011;45043;51.068;7.026;2023-01-15T08:59:41;1.20;;;1.10;;
59271;SDS011;45043;51.068;7.026;2023-01-15T09:02:42;1.20;;;1.20;;
59271;SDS011;45043;51.068;7.026;2023-01-15T09:05:43;3.00;;;1.53;;
59271;SDS011;45043;51.068;7.026;2023-01-15T09:08:43;1.30;;;1.13;;
59271;SDS011;45043;51.068;7.026;2023-01-15T09:11:44;1.83;;;1.37;;
59271;SDS011;45043;51.068;7.026;2023-01-15T09:14:45;1.50;;;1.10;;
59271;SDS011;45043;51.068;7.026;2023-01-15T09:17:45;1.77;;;1.30;;
59271;SDS011;45043;51.068;7.026;2023-01-15T09:20:46;2.03;;;1.20;;
59271;SDS011;45043;51.068;7.026;2023-01-15T09:23:47;1.67;;;1.40;;
59271;SDS011;45043;51.068;7.026;2023-01-15T09:26:47;2.70;;;1.43;;
59271;SDS011;45043;51.068;7.026;2023-01-15T09:29:52;2.37;;;1.40;;
59271;SDS011;45043;51.068;7.026;2023-01-15T09:32:53;2.63;;;2.03;;
59271;SDS011;45043;51.068;7.026;2023-01-15T09:35:54;3.23;;;2.10;;
59271;SDS011;45043;51.068;7.026;2023-01-15T09:38:55;4.87;;;1.80;;
59271;SDS011;45043;51.068;7.026;2023-01-15T09:58:11;6.67;;;2.50;;
59271;SDS011;45043;51.068;7.026;2023-01-15T10:01:18;4.63;;;2.57;;
59271;SDS011;45043;51.068;7.026;2023-01-15T10:04:42;4.23;;;2.63;;
59271;SDS011;45043;51.068;7.026;2023-01-15T10:08:33;2.87;;;2.10;;
59271;SDS011;45043;51.068;7.026;2023-01-15T10:11:23;6.60;;;2.10;;
59271;SDS011;45043;51.068;7.026;2023-01-15T10:18:24;4.13;;;2.30;;
59271;SDS011;45043;51.068;7.026;2023-01-15T10:21:36;6.07;;;2.23;;
59271;SDS011;45043;51.068;7.026;2023-01-15T10:24:56;6.23;;;2.00;;
59271;SDS011;45043;51.068;7.026;2023-01-15T10:27:59;7.27;;;2.17;;
59271;SDS011;45043;51.068;7.026;2023-01-15T10:31:53;7.13;;;2.03;;
59271;SDS011;45043;51.068;7.026;2023-01-15T10:38:52;6.90;;;2.57;;
59271;SDS011;45043;51.068;7.026;2023-01-15T10:45:22;4.83;;;2.30;;
59271;SDS011;45043;51.068;7.026;2023-01-15T10:54:45;8.20;;;2.60;;
59271;SDS011;45043;51.068;7.026;2023-01-15T10:57:57;4.43;;;2.10;;
59271;SDS011;45043;51.068;7.026;2023-01-15T11:01:07;8.40;;;2.30;;
59271;SDS011;45043;51.068;7.026;2023-01-15T11:04:12;5.33;;;2.60;;
59271;SDS011;45043;51.068;7.026;2023-01-15T11:07:12;5.40;;;1.77;;
59271;SDS011;45043;51.068;7.026;2023-01-15T11:10:17;5.47;;;1.67;;
59271;SDS011;45043;51.068;7.026;2023-01-15T11:13:21;5.30;;;2.10;;
59271;SDS011;45043;51.068;7.026;2023-01-15T11:16:41;5.40;;;2.23;;
59271;SDS011;45043;51.068;7.026;2023-01-15T11:20:02;4.20;;;1.93;;
59271;SDS011;45043;51.068;7.026;2023-01-15T11:23:15;3.57;;;1.60;;
59271;SDS011;45043;51.068;7.026;2023-01-15T11:26:24;8.77;;;2.40;;
59271;SDS011;45043;51.068;7.026;2023-01-15T11:29:33;4.80;;;2.00;;
59271;SDS011;45043;51.068;7.026;2023-01-15T11:32:37;5.47;;;1.90;;
59271;SDS011;45043;51.068;7.026;2023-01-15T11:35:38;2.67;;;1.80;;
59271;SDS011;45043;51.068;7.026;2023-01-15T11:38:49;4.67;;;2.13;;
59271;SDS011;45043;51.068;7.026;2023-01-15T11:41:56;4.67;;;2.30;;
59271;SDS011;45043;51.068;7.026;2023-01-15T11:45:18;4.83;;;1.67;;
59271;SDS011;45043;51.068;7.026;2023-01-15T11:48:43;3.73;;;1.93;;
59271;SDS011;45043;51.068;7.026;2023-01-15T11:52:04;5.17;;;2.10;;
59271;SDS011;45043;51.068;7.026;2023-01-15T11:55:14;4.97;;;2.33;;
59271;SDS011;45043;51.068;7.026;2023-01-15T11:58:18;5.47;;;2.10;;
59271;SDS011;45043;51.068;7.026;2023-01-15T12:04:36;3.00;;;2.33;;
59271;SDS011;45043;51.068;7.026;2023-01-15T12:07:48;4.10;;;2.03;;
59271;SDS011;45043;51.068;7.026;2023-01-15T12:10:54;1.67;;;1.43;;
59271;SDS011;45043;51.068;7.026;2023-01-15T12:18:01;2.77;;;2.57;;
59271;SDS011;45043;51.068;7.026;2023-01-15T12:24:40;6.13;;;2.33;;
59271;SDS011;45043;51.068;7.026;2023-01-15T12:28:17;8.40;;;2.20;;
59271;SDS011;45043;51.068;7.026;2023-01-15T12:31:37;3.50;;;1.83;;
59271;SDS011;45043;51.068;7.026;2023-01-15T12:38:33;4.10;;;1.90;;
59271;SDS011;45043;51.068;7.026;2023-01-15T12:42:02;3.93;;;2.40;;
59271;SDS011;45043;51.068;7.026;2023-01-15T12:45:27;3.53;;;2.00;;
59271;SDS011;45043;51.068;7.026;2023-01-15T12:51:56;5.33;;;2.20;;
59271;SDS011;45043;51.068;7.026;2023-01-15T13:01:31;5.33;;;1.60;;
59271;SDS011;45043;51.068;7.026;2023-01-15T13:04:52;7.20;;;2.23;;
59271;SDS011;45043;51.068;7.026;2023-01-15T13:08:16;4.40;;;1.60;;
59271;SDS011;45043;51.068;7.026;2023-01-15T13:11:23;3.27;;;1.47;;
59271;SDS011;45043;51.068;7.026;2023-01-15T13:14:24;3.53;;;1.77;;
59271;SDS011;45043;51.068;7.026;2023-01-15T13:27:20;3.93;;;1.80;;
59271;SDS011;45043;51.068;7.026;2023-01-15T13:30:44;2.70;;;1.57;;
59271;SDS011;45043;51.068;7.026;2023-01-15T13:34:23;3.13;;;1.97;;
59271;SDS011;45043;51.068;7.026;2023-01-15T13:37:50;2.77;;;1.57;;
59271;SDS011;45043;51.068;7.026;2023-01-15T13:40:54;2.30;;;1.83;;
59271;SDS011;45043;51.068;7.026;2023-01-15T13:43:58;5.60;;;2.20;;
59271;SDS011;45043;51.068;7.026;2023-01-15T13:47:06;3.93;;;2.00;;
59271;SDS011;45043;51.068;7.026;2023-01-15T13:50:15;3.87;;;1.80;;
59271;SDS011;45043;51.068;7.026;2023-01-15T13:53:26;5.30;;;2.40;;
59271;SDS011;45043;51.068;7.026;2023-01-15T13:56:31;5.53;;;2.33;;
59271;SDS011;45043;51.068;7.026;2023-01-15T13:59:40;5.27;;;1.80;;
59271;SDS011;45043;51.068;7.026;2023-01-15T14:02:49;5.07;;;2.00;;
59271;SDS011;45043;51.068;7.026;2023-01-15T14:05:53;6.03;;;1.60;;
59271;SDS011;45043;51.068;7.026;2023-01-15T14:08:58;4.23;;;1.37;;
59271;SDS011;45043;51.068;7.026;2023-01-15T14:15:02;4.20;;;2.10;;
59271;SDS011;45043;51.068;7.026;2023-01-15T14:21:55;5.30;;;2.00;;
59271;SDS011;45043;51.068;7.026;2023-01-15T14:28:38;4.07;;;1.70;;
59271;SDS011;45043;51.068;7.026;2023-01-15T14:35:18;3.20;;;1.60;;
59271;SDS011;45043;51.068;7.026;2023-01-15T14:38:21;4.30;;;1.87;;
59271;SDS011;45043;51.068;7.026;2023-01-15T14:41:26;4.03;;;2.30;;
59271;SDS011;45043;51.068;7.026;2023-01-15T14:44:30;3.43;;;1.67;;
59271;SDS011;45043;51.068;7.026;2023-01-15T14:47:42;2.83;;;2.07;;
59271;SDS011;45043;51.068;7.026;2023-01-15T14:50:45;5.10;;;1.67;;
59271;SDS011;45043;51.068;7.026;2023-01-15T14:53:50;2.93;;;1.63;;
59271;SDS011;45043;51.068;7.026;2023-01-15T14:57:05;4.17;;;1.67;;
59271;SDS011;45043;51.068;7.026;2023-01-15T15:00:10;2.93;;;1.70;;
59271;SDS011;45043;51.068;7.026;2023-01-15T15:03:16;3.63;;;1.80;;
59271;SDS011;45043;51.068;7.026;2023-01-15T15:06:21;3.07;;;1.50;;
59271;SDS011;45043;51.068;7.026;2023-01-15T15:09:29;7.63;;;2.03;;
59271;SDS011;45043;51.068;7.026;2023-01-15T15:12:37;4.07;;;2.17;;
59271;SDS011;45043;51.068;7.026;2023-01-15T15:22:11;5.57;;;2.23;;
59271;SDS011;45043;51.068;7.026;2023-01-15T15:25:21;2.27;;;2.07;;
59271;SDS011;45043;51.068;7.026;2023-01-15T15:28:24;3.27;;;1.40;;
59271;SDS011;45043;51.068;7.026;2023-01-15T15:31:25;4.20;;;1.87;;
59271;SDS011;45043;51.068;7.026;2023-01-15T15:37:31;3.03;;;1.70;;
59271;SDS011;45043;51.068;7.026;2023-01-15T15:40:34;2.93;;;1.53;;
59271;SDS011;45043;51.068;7.026;2023-01-15T15:47:15;4.33;;;1.87;;
59271;SDS011;45043;51.068;7.026;2023-01-15T15:50:36;3.57;;;1.67;;
59271;SDS011;45043;51.068;7.026;2023-01-15T15:53:37;4.17;;;2.00;;
59271;SDS011;45043;51.068;7.026;2023-01-15T15:56:39;3.27;;;1.57;;
59271;SDS011;45043;51.068;7.026;2023-01-15T15:59:45;2.20;;;1.50;;
59271;SDS011;45043;51.068;7.026;2023-01-15T16:02:50;1.57;;;1.40;;
59271;SDS011;45043;51.068;7.026;2023-01-15T16:06:01;5.37;;;1.87;;
59271;SDS011;45043;51.068;7.026;2023-01-15T16:09:07;5.03;;;2.07;;
59271;SDS011;45043;51.068;7.026;2023-01-15T16:12:10;3.23;;;1.33;;
59271;SDS011;45043;51.068;7.026;2023-01-15T16:15:15;5.93;;;1.90;;
59271;SDS011;45043;51.068;7.026;2023-01-15T16:18:21;2.30;;;1.67;;
59271;SDS011;45043;51.068;7.026;2023-01-15T16:21:26;2.47;;;1.73;;
59271;SDS011;45043;51.068;7.026;2023-01-15T16:24:31;4.80;;;1.70;;
59271;SDS011;45043;51.068;7.026;2023-01-15T16:27:32;3.90;;;1.97;;
59271;SDS011;45043;51.068;7.026;2023-01-15T16:30:34;3.77;;;1.63;;
59271;SDS011;45043;51.068;7.026;2023-01-15T16:33:44;2.23;;;1.77;;
59271;SDS011;45043;51.068;7.026;2023-01-15T16:36:46;5.27;;;1.70;;
59271;SDS011;45043;51.068;7.026;2023-01-15T16:39:47;4.40;;;1.53;;
59271;SDS011;45043;51.068;7.026;2023-01-15T16:42:48;3.50;;;1.60;;
59271;SDS011;45043;51.068;7.026;2023-01-15T16:46:16;4.03;;;1.80;;
59271;SDS011;45043;51.068;7.026;2023-01-15T16:49:24;4.87;;;1.83;;
59271;SDS011;45043;51.068;7.026;2023-01-15T16:52:34;2.17;;;1.73;;
59271;SDS011;45043;51.068;7.026;2023-01-15T16:55:48;3.13;;;1.67;;
59271;SDS011;45043;51.068;7.026;2023-01-15T16:58:53;1.63;;;1.53;;
59271;SDS011;45043;51.068;7.026;2023-01-15T17:05:28;3.97;;;1.90;;
59271;SDS011;45043;51.068;7.026;2023-01-15T17:08:31;2.10;;;1.67;;
59271;SDS011;45043;51.068;7.026;2023-01-15T17:11:40;3.33;;;1.57;;
59271;SDS011;45043;51.068;7.026;2023-01-15T17:14:41;2.87;;;1.83;;
59271;SDS011;45043;51.068;7.026;2023-01-15T17:17:51;2.70;;;1.67;;
59271;SDS011;45043;51.068;7.026;2023-01-15T17:20:53;2.70;;;1.40;;
59271;SDS011;45043;51.068;7.026;2023-01-15T17:23:54;2.37;;;1.40;;
59271;SDS011;45043;51.068;7.026;2023-01-15T17:26:55;2.77;;;1.60;;
59271;SDS011;45043;51.068;7.026;2023-01-15T17:29:56;3.67;;;1.60;;
59271;SDS011;45043;51.068;7.026;2023-01-15T17:32:57;3.90;;;1.50;;
59271;SDS011;45043;51.068;7.026;2023-01-15T17:35:58;3.90;;;1.90;;
59271;SDS011;45043;51.068;7.026;2023-01-15T17:39:00;3.93;;;2.00;;
59271;SDS011;45043;51.068;7.026;2023-01-15T17:42:00;5.67;;;1.90;;
59271;SDS011;45043;51.068;7.026;2023-01-15T17:45:01;4.83;;;2.00;;
59271;SDS011;45043;51.068;7.026;2023-01-15T17:48:02;3.43;;;1.50;;
59271;SDS011;45043;51.068;7.026;2023-01-15T17:51:04;3.60;;;2.03;;
59271;SDS011;45043;51.068;7.026;2023-01-15T17:54:14;3.57;;;1.73;;
59271;SDS011;45043;51.068;7.026;2023-01-15T17:57:35;4.13;;;3.03;;
59271;SDS011;45043;51.068;7.026;2023-01-15T18:00:54;6.43;;;2.07;;
59271;SDS011;45043;51.068;7.026;2023-01-15T18:04:15;4.50;;;2.27;;
59271;SDS011;45043;51.068;7.026;2023-01-15T18:07:39;4.27;;;2.20;;
59271;SDS011;45043;51.068;7.026;2023-01-15T18:10:42;7.60;;;3.30;;
59271;SDS011;45043;51.068;7.026;2023-01-15T18:13:43;3.83;;;2.27;;
59271;SDS011;45043;51.068;7.026;2023-01-15T18:16:44;4.33;;;1.97;;
59271;SDS011;45043;51.068;7.026;2023-01-15T18:19:45;3.40;;;1.73;;
59271;SDS011;45043;51.068;7.026;2023-01-15T18:22:45;3.73;;;2.60;;
59271;SDS011;45043;51.068;7.026;2023-01-15T18:25:46;3.37;;;1.83;;
59271;SDS011;45043;51.068;7.026;2023-01-15T18:28:47;2.90;;;1.70;;
59271;SDS011;45043;51.068;7.026;2023-01-15T18:31:48;2.33;;;1.93;;
59271;SDS011;45043;51.068;7.026;2023-01-15T18:34:48;2.70;;;1.83;;
59271;SDS011;45043;51.068;7.026;2023-01-15T18:37:49;3.57;;;1.87;;
59271;SDS011;45043;51.068;7.026;2023-01-15T18:40:49;2.37;;;1.80;;
59271;SDS011;45043;51.068;7.026;2023-01-15T18:43:50;2.07;;;1.80;;
59271;SDS011;45043;51.068;7.026;2023-01-15T18:47:10;4.40;;;1.87;;
59271;SDS011;45043;51.068;7.026;2023-01-15T18:50:12;3.87;;;1.87;;
59271;SDS011;45043;51.068;7.026;2023-01-15T18:53:13;3.17;;;1.80;;
59271;SDS011;45043;51.068;7.026;2023-01-15T18:56:15;5.13;;;1.67;;
59271;SDS011;45043;51.068;7.026;2023-01-15T18:59:35;3.13;;;1.80;;
59271;SDS011;45043;51.068;7.026;2023-01-15T19:02:36;4.60;;;2.50;;
59271;SDS011;45043;51.068;7.026;2023-01-15T19:05:36;4.63;;;2.17;;
59271;SDS011;45043;51.068;7.026;2023-01-15T19:08:37;5.13;;;2.40;;
59271;SDS011;45043;51.068;7.026;2023-01-15T19:11:38;4.07;;;2.30;;
59271;SDS011;45043;51.068;7.026;2023-01-15T19:14:39;3.30;;;2.23;;
59271;SDS011;45043;51.068;7.026;2023-01-15T19:17:58;3.07;;;2.10;;
59271;SDS011;45043;51.068;7.026;2023-01-15T19:21:17;4.83;;;2.37;;
59271;SDS011;45043;51.068;7.026;2023-01-15T19:24:19;5.77;;;2.33;;
59271;SDS011;45043;51.068;7.026;2023-01-15T19:27:20;7.30;;;2.83;;
59271;SDS011;45043;51.068;7.026;2023-01-15T19:30:21;5.27;;;2.50;;
59271;SDS011;45043;51.068;7.026;2023-01-15T19:33:22;5.33;;;3.37;;
59271;SDS011;45043;51.068;7.026;2023-01-15T19:36:22;5.70;;;2.73;;
59271;SDS011;45043;51.068;7.026;2023-01-15T19:39:24;5.23;;;2.87;;
59271;SDS011;45043;51.068;7.026;2023-01-15T19:42:25;8.27;;;2.60;;
59271;SDS011;45043;51.068;7.026;2023-01-15T19:45:44;5.20;;;2.87;;
59271;SDS011;45043;51.068;7.026;2023-01-15T19:49:16;5.50;;;2.50;;
59271;SDS011;45043;51.068;7.026;2023-01-15T19:52:37;4.17;;;2.20;;
59271;SDS011;45043;51.068;7.026;2023-01-15T19:55:40;3.43;;;2.30;;
59271;SDS011;45043;51.068;7.026;2023-01-15T19:58:43;4.83;;;1.90;;
59271;SDS011;45043;51.068;7.026;2023-01-15T20:01:43;6.33;;;2.50;;
59271;SDS011;45043;51.068;7.026;2023-01-15T20:04:44;4.20;;;2.60;;
59271;SDS011;45043;51.068;7.026;2023-01-15T20:07:45;3.67;;;2.23;;
59271;SDS011;45043;51.068;7.026;2023-01-15T20:10:47;5.67;;;2.10;;
59271;SDS011;45043;51.068;7.026;2023-01-15T20:13:49;2.77;;;2.00;;
59271;SDS011;45043;51.068;7.026;2023-01-15T20:16:51;3.90;;;1.90;;
59271;SDS011;45043;51.068;7.026;2023-01-15T20:19:51;3.67;;;1.90;;
59271;SDS011;45043;51.068;7.026;2023-01-15T20:22:53;5.97;;;2.73;;
59271;SDS011;45043;51.068;7.026;2023-01-15T20:26:00;4.43;;;2.30;;
59271;SDS011;45043;51.068;7.026;2023-01-15T20:29:06;7.67;;;2.77;;
59271;SDS011;45043;51.068;7.026;2023-01-15T20:32:06;6.43;;;2.30;;
59271;SDS011;45043;51.068;7.026;2023-01-15T20:35:08;6.33;;;2.97;;
59271;SDS011;45043;51.068;7.026;2023-01-15T20:38:14;6.20;;;2.63;;
59271;SDS011;45043;51.068;7.026;2023-01-15T20:41:14;5.67;;;2.50;;
59271;SDS011;45043;51.068;7.026;2023-01-15T20:44:33;4.47;;;2.83;;
59271;SDS011;45043;51.068;7.026;2023-01-15T20:47:52;6.20;;;3.17;;